Time;durP1;ratioP1;P1;durP2;ratioP2;P2;SDS_P1;SDS_P2;PMS_P1;PMS_P2;Temp;Humidity;BMP_temperature;BMP_pressure;BME280_temperature;BME280_humidity;BME280_pressure;Samples;Min_cycle;Max_cycle;Signal;HPM_P1;HPM_P2
2023/10/16 00:02:23;;;;;;;4.83;2.13;;;;;;;4.14;74.28;96155.41;4923325;29;20229;-81
2023/10/16 00:04:49;;;;;;;2.60;1.27;;;;;;;4.12;74.41;96158.06;4926204;29;20589;-80
2023/10/16 00:07:22;;;;;;;3.10;1.20;;;;;;;4.10;74.46;96156.53;4925449;29;20210;-80
2023/10/16 00:09:49;;;;;;;3.23;0.90;;;;;;;4.10;74.22;96162.50;4931661;29;20239;-79
2023/10/16 00:12:19;;;;;;;3.67;1.07;;;;;;;4.09;74.50;96160.00;4920729;29;20186;-81
2023/10/16 00:14:44;;;;;;;2.47;1.30;;;;;;;4.05;74.48;96167.06;4938476;29;20273;-80
2023/10/16 00:17:12;;;;;;;2.73;1.17;;;;;;;4.11;74.01;96164.13;4962259;28;20307;-78
2023/10/16 00:19:37;;;;;;;2.57;1.20;;;;;;;4.23;73.61;96165.13;4946691;29;20231;-81
2023/10/16 00:22:13;;;;;;;1.47;1.10;;;;;;;4.16;73.08;96156.97;4938527;29;20196;-82
2023/10/16 00:24:45;;;;;;;2.90;1.23;;;;;;;4.20;73.68;96163.56;4936170;29;20219;-81
2023/10/16 00:27:13;;;;;;;1.87;1.37;;;;;;;4.07;73.90;96154.16;4923175;29;20212;-80
2023/10/16 00:29:41;;;;;;;3.43;0.90;;;;;;;4.07;74.04;96149.00;4941830;29;20193;-79
2023/10/16 00:32:07;;;;;;;1.80;1.43;;;;;;;3.97;74.64;96152.09;4964441;28;20180;-78
2023/10/16 00:34:33;;;;;;;2.20;1.20;;;;;;;3.96;74.50;96154.78;4960890;28;20188;-78
2023/10/16 00:37:01;;;;;;;2.73;1.20;;;;;;;3.97;74.71;96157.25;4963568;28;20210;-79
2023/10/16 00:39:28;;;;;;;1.67;1.20;;;;;;;3.98;74.40;96148.66;4945939;29;20208;-81
2023/10/16 00:41:54;;;;;;;1.90;1.43;;;;;;;3.98;74.50;96145.25;4952672;28;20216;-79
2023/10/16 00:44:22;;;;;;;4.50;1.60;;;;;;;3.94;73.96;96148.91;4964312;28;20228;-81
2023/10/16 00:46:50;;;;;;;3.93;1.23;;;;;;;4.01;74.63;96145.06;4948949;28;20194;-78
2023/10/16 00:49:18;;;;;;;2.77;1.23;;;;;;;4.01;74.47;96151.94;4963413;28;20189;-80
2023/10/16 00:51:45;;;;;;;3.23;1.03;;;;;;;4.00;75.03;96145.97;4967033;28;20186;-79
2023/10/16 00:54:16;;;;;;;3.00;1.20;;;;;;;3.98;74.76;96145.25;4951910;29;20212;-81
2023/10/16 00:56:47;;;;;;;2.20;1.13;;;;;;;3.97;75.19;96141.81;4927349;29;20208;-81
2023/10/16 00:59:16;;;;;;;1.73;1.10;;;;;;;3.96;74.75;96136.78;4940022;29;20186;-82
2023/10/16 01:01:45;;;;;;;2.60;1.17;;;;;;;3.86;75.40;96139.09;4931572;29;20224;-80
2023/10/16 01:04:11;;;;;;;1.43;1.10;;;;;;;3.89;74.93;96135.53;4924967;29;20300;-80
2023/10/16 01:06:37;;;;;;;1.57;1.33;;;;;;;3.84;74.94;96129.84;4929309;29;20357;-82
2023/10/16 01:09:13;;;;;;;2.93;1.17;;;;;;;3.80;75.26;96121.50;4958111;29;20166;-79
2023/10/16 01:11:38;;;;;;;1.80;1.07;;;;;;;3.78;75.18;96123.31;4955323;29;20189;-78
2023/10/16 01:14:05;;;;;;;1.50;1.27;;;;;;;3.69;75.49;96119.53;4953600;29;20228;-82
2023/10/16 01:16:30;;;;;;;1.97;1.10;;;;;;;3.67;75.65;96113.69;4941830;29;20237;-81
2023/10/16 01:19:08;;;;;;;5.57;1.20;;;;;;;3.59;75.62;96097.91;4950050;28;20193;-81
2023/10/16 01:21:34;;;;;;;2.53;1.07;;;;;;;3.52;75.85;96098.34;4947362;29;20182;-81
2023/10/16 01:24:16;;;;;;;2.40;1.20;;;;;;;3.54;75.95;96104.25;4945107;29;20189;-81
2023/10/16 01:26:42;;;;;;;2.63;1.23;;;;;;;3.60;75.26;96107.25;4939356;29;20275;-80
2023/10/16 01:29:09;;;;;;;2.00;1.33;;;;;;;3.49;75.89;96107.06;4931501;29;20240;-80
2023/10/16 01:31:36;;;;;;;3.00;1.20;;;;;;;3.49;75.91;96101.13;4946278;28;20185;-79
2023/10/16 01:34:02;;;;;;;2.27;1.20;;;;;;;3.49;75.79;96099.38;4943408;29;20184;-81
2023/10/16 01:36:30;;;;;;;1.87;0.90;;;;;;;3.51;75.74;96109.53;4924515;29;20206;-81
2023/10/16 01:38:58;;;;;;;3.33;1.30;;;;;;;3.46;76.22;96107.25;4925969;29;20940;-83
2023/10/16 01:41:24;;;;;;;1.60;1.00;;;;;;;3.47;76.00;96108.09;4952220;28;20189;-80
2023/10/16 01:43:52;;;;;;;1.80;1.20;;;;;;;3.44;76.22;96103.13;4931627;29;20292;-79
2023/10/16 01:46:18;;;;;;;4.20;1.20;;;;;;;3.45;76.14;96104.78;4943303;28;20186;-79
2023/10/16 01:48:45;;;;;;;1.83;1.30;;;;;;;3.37;76.33;96093.22;4940017;29;20205;-80
2023/10/16 01:51:20;;;;;;;2.63;1.07;;;;;;;3.29;77.04;96092.84;4944085;29;20189;-79
2023/10/16 01:53:51;;;;;;;2.40;1.00;;;;;;;3.28;76.60;96090.38;4934504;29;20195;-78
2023/10/16 01:56:17;;;;;;;2.73;1.30;;;;;;;3.27;76.43;96086.13;4942889;28;20624;-79
2023/10/16 01:58:45;;;;;;;1.40;1.10;;;;;;;3.25;76.32;96086.22;4939900;28;20252;-79
2023/10/16 02:01:11;;;;;;;1.73;1.07;;;;;;;3.18;76.17;96079.81;4932018;29;20217;-79
2023/10/16 02:03:37;;;;;;;3.57;1.00;;;;;;;3.23;76.20;96080.38;4934549;29;20186;-80
2023/10/16 02:06:03;;;;;;;2.10;1.17;;;;;;;3.22;76.43;96081.28;4928832;29;20749;-81
2023/10/16 02:08:28;;;;;;;1.37;1.07;;;;;;;3.24;76.31;96069.19;4937112;29;20202;-83
2023/10/16 02:10:53;;;;;;;1.77;1.23;;;;;;;3.17;77.05;96075.59;4936427;29;20260;-81
2023/10/16 02:13:19;;;;;;;1.63;1.10;;;;;;;3.26;76.89;96076.78;4936115;29;20287;-80
2023/10/16 02:15:44;;;;;;;1.63;1.10;;;;;;;3.28;76.29;96064.72;4933947;29;20211;-80
2023/10/16 02:18:18;;;;;;;3.10;1.43;;;;;;;3.27;77.01;96069.03;4928397;29;20296;-78
2023/10/16 02:20:45;;;;;;;2.50;1.10;;;;;;;3.32;76.70;96061.84;4958270;28;20200;-78
2023/10/16 02:23:10;;;;;;;4.73;1.20;;;;;;;3.26;76.79;96063.94;4938847;29;20193;-80
2023/10/16 02:25:36;;;;;;;3.20;1.17;;;;;;;3.34;76.78;96061.75;4935732;29;20587;-81
2023/10/16 02:28:02;;;;;;;3.30;1.50;;;;;;;3.27;76.42;96057.91;4938290;29;20228;-81
2023/10/16 02:33:10;;;;;;;2.60;1.30;;;;;;;3.24;76.40;96055.53;4942889;29;20189;-81
2023/10/16 02:35:37;;;;;;;2.73;1.17;;;;;;;3.24;76.35;96064.03;4933447;29;20190;-79
2023/10/16 02:38:03;;;;;;;1.80;1.13;;;;;;;3.26;76.16;96062.22;4939680;29;20217;-79
2023/10/16 02:40:32;;;;;;;2.50;1.10;;;;;;;3.31;75.77;96061.94;4958939;28;20194;-79
2023/10/16 02:43:01;;;;;;;1.40;1.30;;;;;;;3.31;76.16;96059.38;4928482;29;20197;-80
2023/10/16 02:45:27;;;;;;;1.87;1.30;;;;;;;3.34;76.04;96064.31;4943625;29;20215;-79
2023/10/16 02:47:53;;;;;;;1.43;1.03;;;;;;;3.33;76.35;96062.69;4919264;29;20234;-79
2023/10/16 02:50:19;;;;;;;2.27;1.27;;;;;;;3.36;75.64;96062.53;4934926;29;20257;-79
2023/10/16 02:52:48;;;;;;;1.50;1.40;;;;;;;3.30;75.81;96057.72;4946621;29;20603;-80
2023/10/16 02:55:14;;;;;;;1.60;1.07;;;;;;;3.26;76.36;96061.38;4943190;29;20730;-80
2023/10/16 02:57:40;;;;;;;2.73;1.10;;;;;;;3.27;76.04;96068.16;4939782;29;20234;-80
2023/10/16 03:00:34;;;;;;;2.13;1.23;;;;;;;3.27;75.97;96063.03;4936470;29;20189;-78
2023/10/16 03:02:57;;;;;;;3.93;1.30;;;;;;;3.27;75.85;96061.31;4938082;29;20687;-79
2023/10/16 03:05:25;;;;;;;2.77;1.27;;;;;;;3.25;76.26;96064.88;4941260;28;20236;-80
2023/10/16 03:07:51;;;;;;;1.30;1.20;;;;;;;3.22;76.07;96059.94;4942954;28;20241;-79
2023/10/16 03:10:17;;;;;;;1.40;1.20;;;;;;;3.19;76.26;96060.94;4932367;29;20265;-81
2023/10/16 03:12:43;;;;;;;2.63;1.07;;;;;;;3.17;76.09;96059.34;4919702;29;20648;-80
2023/10/16 03:15:15;;;;;;;3.17;1.33;;;;;;;3.23;75.53;96062.41;4924753;29;20221;-80
2023/10/16 03:17:41;;;;;;;2.80;1.30;;;;;;;3.20;75.86;96054.88;4943395;29;20209;-79
2023/10/16 03:20:20;;;;;;;3.23;1.40;;;;;;;3.17;76.45;96059.34;4945136;29;20194;-80
2023/10/16 03:22:46;;;;;;;3.20;1.90;;;;;;;3.16;75.90;96055.16;4934670;29;20193;-80
2023/10/16 03:25:25;;;;;;;3.87;1.63;;;;;;;3.12;76.47;96050.19;4922226;29;20796;-79
2023/10/16 03:27:50;;;;;;;1.90;1.50;;;;;;;3.04;76.91;96052.38;4939331;29;20229;-79
2023/10/16 03:30:17;;;;;;;1.93;1.50;;;;;;;3.03;76.88;96040.47;4942096;28;20189;-80
2023/10/16 03:32:42;;;;;;;1.63;1.53;;;;;;;3.05;77.26;96043.78;4925470;29;20189;-79
2023/10/16 03:35:09;;;;;;;2.87;1.57;;;;;;;3.03;77.10;96043.03;4937275;29;20189;-79
2023/10/16 03:37:35;;;;;;;2.93;1.60;;;;;;;3.08;76.48;96043.59;4958238;29;20197;-79
2023/10/16 03:40:07;;;;;;;2.10;1.83;;;;;;;3.11;76.53;96043.41;4957328;29;20189;-81
2023/10/16 03:42:33;;;;;;;2.90;1.50;;;;;;;3.12;76.66;96039.94;4935192;29;20262;-80
2023/10/16 03:45:01;;;;;;;3.30;1.90;;;;;;;3.13;77.08;96033.88;4937300;29;20699;-80
2023/10/16 03:47:27;;;;;;;4.03;2.10;;;;;;;3.12;77.27;96033.97;4923947;29;20226;-81
2023/10/16 03:49:53;;;;;;;2.47;1.83;;;;;;;3.13;77.14;96027.94;4940784;29;20220;-80
2023/10/16 03:52:18;;;;;;;2.97;1.97;;;;;;;3.18;77.18;96030.22;4947732;29;20222;-80
2023/10/16 03:54:44;;;;;;;2.30;1.90;;;;;;;3.19;77.21;96032.72;4947521;28;20197;-81
2023/10/16 03:57:09;;;;;;;6.00;2.57;;;;;;;3.24;77.55;96027.28;4961365;28;20245;-81
2023/10/16 03:59:35;;;;;;;6.37;2.47;;;;;;;3.23;77.68;96023.06;4939978;29;20280;-81
2023/10/16 04:02:04;;;;;;;4.27;2.77;;;;;;;3.28;77.74;96028.78;4946685;28;20181;-80
2023/10/16 04:04:29;;;;;;;4.37;2.50;;;;;;;3.29;77.92;96030.41;4934722;29;20299;-78
2023/10/16 04:06:56;;;;;;;4.20;2.67;;;;;;;3.25;78.73;96022.06;4946867;28;20292;-79
2023/10/16 04:09:29;;;;;;;5.40;3.53;;;;;;;3.34;78.31;96025.81;4944184;28;20181;-80
2023/10/16 04:11:56;;;;;;;5.07;3.10;;;;;;;3.44;79.00;96028.66;4944023;29;20669;-79
2023/10/16 04:14:44;;;;;;;5.87;2.80;;;;;;;3.52;79.36;96021.31;4949485;29;20253;-78
2023/10/16 04:17:10;;;;;;;6.20;3.40;;;;;;;3.55;79.27;96031.44;4947704;28;20205;-79
2023/10/16 04:19:47;;;;;;;5.20;3.53;;;;;;;3.65;79.05;96017.09;4929490;29;20571;-78
2023/10/16 04:22:16;;;;;;;6.57;3.70;;;;;;;3.67;79.53;96018.66;4924679;29;20268;-79
2023/10/16 04:24:44;;;;;;;5.63;3.40;;;;;;;3.68;78.92;96015.16;4935854;29;20576;-80
2023/10/16 04:34:52;;;;;;;8.60;3.57;;;;;;;3.80;79.50;96010.19;4940172;29;20559;-80
2023/10/16 04:37:31;;;;;;;5.80;3.63;;;;;;;3.78;79.38;96017.16;4940119;28;20208;-79
2023/10/16 05:03:29;;;;;;;5.60;3.60;;;;;;;3.61;79.31;95993.34;4940969;29;20200;-79
2023/10/16 05:08:39;;;;;;;10.70;3.77;;;;;;;3.58;79.57;95985.81;4940649;29;20268;-78
2023/10/16 05:17:06;;;;;;;5.50;3.77;;;;;;;3.59;79.87;95987.47;4941127;29;20247;-81
2023/10/16 05:22:02;;;;;;;7.83;3.10;;;;;;;3.66;79.60;95983.59;4940960;29;20211;-78
2023/10/16 06:14:16;;;;;;;5.50;3.70;;;;;;;3.97;78.59;95989.38;4936722;29;20272;-78
2023/10/16 06:16:45;;;;;;;7.20;3.90;;;;;;;4.04;78.53;95985.53;4945414;28;20232;-79
2023/10/16 06:19:18;;;;;;;4.50;3.73;;;;;;;4.08;78.62;95984.41;4945095;29;20198;-79
2023/10/16 06:21:46;;;;;;;5.50;4.53;;;;;;;4.14;78.19;95991.72;4944810;29;20271;-79
2023/10/16 06:24:35;;;;;;;4.40;3.30;;;;;;;4.22;78.39;95997.19;4934745;29;20199;-79
2023/10/16 06:27:08;;;;;;;6.43;3.80;;;;;;;4.30;78.02;95999.28;4943664;29;20224;-80
2023/10/16 06:29:35;;;;;;;5.77;3.70;;;;;;;4.29;78.64;95997.63;4943928;29;20199;-78
2023/10/16 06:32:07;;;;;;;7.17;4.10;;;;;;;4.33;77.92;96001.69;4943613;28;20754;-79
2023/10/16 06:34:36;;;;;;;6.33;4.07;;;;;;;4.37;78.13;95997.16;4939388;29;20200;-78
2023/10/16 06:37:05;;;;;;;8.03;4.20;;;;;;;4.41;77.88;96001.97;4960719;29;20310;-77
2023/10/16 06:39:36;;;;;;;5.67;4.40;;;;;;;4.49;78.08;95997.16;4942346;29;20729;-79
2023/10/16 06:42:05;;;;;;;5.63;4.20;;;;;;;4.56;77.83;95995.03;4929687;29;20197;-83
2023/10/16 06:44:34;;;;;;;6.67;3.90;;;;;;;4.52;77.80;95999.56;4934786;29;20213;-80
2023/10/16 06:46:59;;;;;;;5.10;4.37;;;;;;;4.62;77.01;95999.78;4946875;29;20216;-81
2023/10/16 06:49:36;;;;;;;4.40;4.00;;;;;;;4.70;77.20;96000.13;4945838;29;20257;-79
2023/10/16 06:52:05;;;;;;;6.63;4.40;;;;;;;4.79;76.93;96001.25;4946801;29;20200;-81
2023/10/16 06:54:32;;;;;;;7.87;4.47;;;;;;;4.80;76.60;95993.44;4946144;28;20190;-80
2023/10/16 06:57:05;;;;;;;5.47;4.63;;;;;;;4.77;77.32;95996.22;4936260;29;20224;-80
2023/10/16 06:59:31;;;;;;;7.40;3.87;;;;;;;4.89;77.20;95998.91;4939623;29;20196;-81
2023/10/16 07:01:56;;;;;;;4.77;4.07;;;;;;;4.91;77.08;95991.88;4933209;29;20284;-81
2023/10/16 07:04:22;;;;;;;7.73;4.53;;;;;;;4.79;76.89;95996.94;4924696;29;20710;-79
2023/10/16 07:06:48;;;;;;;6.47;4.20;;;;;;;4.95;76.99;95991.59;4946034;29;20717;-78
2023/10/16 07:09:16;;;;;;;6.03;4.50;;;;;;;4.95;76.76;95996.75;4927773;29;20346;-79
2023/10/16 07:11:42;;;;;;;5.30;4.47;;;;;;;5.00;76.76;96002.41;4932400;29;20198;-80
2023/10/16 07:14:12;;;;;;;6.20;4.60;;;;;;;5.13;76.73;95994.69;4939333;29;20216;-79
2023/10/16 07:16:38;;;;;;;6.40;4.80;;;;;;;5.02;76.74;95992.00;4939046;29;20268;-79
2023/10/16 07:19:07;;;;;;;5.53;4.60;;;;;;;5.01;77.09;95986.00;4947265;29;20186;-81
2023/10/16 07:21:32;;;;;;;5.47;4.43;;;;;;;5.07;76.62;95984.78;4945716;29;20190;-80
2023/10/16 07:23:57;;;;;;;6.00;4.93;;;;;;;5.15;76.59;95997.16;4932863;29;20198;-78
2023/10/16 07:26:25;;;;;;;5.17;4.17;;;;;;;5.08;76.58;95996.72;4939522;29;20216;-81
2023/10/16 07:28:51;;;;;;;4.73;4.17;;;;;;;5.10;76.45;96000.84;4943300;29;20193;-79
2023/10/16 07:31:16;;;;;;;6.93;3.73;;;;;;;5.24;76.49;95996.53;4925348;29;20190;-82
2023/10/16 07:33:50;;;;;;;6.97;4.60;;;;;;;5.32;75.64;96005.38;4931154;29;20209;-80
2023/10/16 07:36:15;;;;;;;4.57;4.17;;;;;;;5.33;75.96;95996.72;4938165;29;20585;-80
2023/10/16 07:38:41;;;;;;;7.47;4.37;;;;;;;5.31;76.24;95998.59;4925513;29;20261;-80
2023/10/16 07:41:13;;;;;;;8.37;4.23;;;;;;;5.42;75.75;95994.44;4935865;29;20185;-80
2023/10/16 07:43:39;;;;;;;5.23;4.20;;;;;;;5.44;75.79;95997.75;4946364;29;20193;-80
2023/10/16 07:48:42;;;;;;;5.90;4.33;;;;;;;5.69;75.09;95992.53;4938021;29;20197;-80
2023/10/16 07:51:08;;;;;;;7.40;5.00;;;;;;;5.69;74.64;95992.53;4921813;29;20216;-82
2023/10/16 07:53:37;;;;;;;6.47;4.50;;;;;;;5.83;73.97;95997.56;4934402;29;20225;-82
2023/10/16 07:56:15;;;;;;;7.20;4.53;;;;;;;5.84;74.03;95998.38;4921789;29;20272;-80
2023/10/16 07:58:47;;;;;;;7.07;4.30;;;;;;;5.93;73.55;95995.19;4944514;29;20186;-82
2023/10/16 08:03:41;;;;;;;8.63;4.63;;;;;;;6.18;72.82;96004.56;4942424;28;20204;-82
2023/10/16 08:06:12;;;;;;;6.73;3.50;;;;;;;6.21;72.48;96000.03;4948224;29;20575;-82
2023/10/16 08:08:38;;;;;;;5.90;3.33;;;;;;;6.58;71.70;95992.22;4930690;29;20185;-79
2023/10/16 08:11:13;;;;;;;7.00;3.57;;;;;;;6.70;71.00;95996.44;4927333;29;20292;-81
2023/10/16 08:13:46;;;;;;;4.03;3.20;;;;;;;6.67;70.78;96001.03;4922019;29;20194;-82
2023/10/16 08:16:27;;;;;;;3.63;3.30;;;;;;;6.84;70.08;95995.44;4929123;29;20217;-82
2023/10/16 08:18:57;;;;;;;7.60;2.80;;;;;;;6.78;69.67;96008.81;4947775;29;20197;-82
2023/10/16 08:21:25;;;;;;;6.17;2.73;;;;;;;7.02;68.76;96006.16;4945918;28;20284;-83
2023/10/16 08:23:54;;;;;;;5.37;3.23;;;;;;;7.34;68.78;96011.50;4924150;29;20186;-82
2023/10/16 08:26:28;;;;;;;5.00;3.10;;;;;;;7.37;68.50;96017.25;4926175;29;20660;-83
2023/10/16 08:29:11;;;;;;;7.07;3.47;;;;;;;7.53;67.27;96016.91;4925764;29;20182;-81
2023/10/16 08:31:47;;;;;;;4.13;3.20;;;;;;;7.71;66.83;96013.84;4942378;29;20207;-80
2023/10/16 08:34:22;;;;;;;6.47;3.23;;;;;;;7.57;66.60;96027.81;4942473;29;20181;-80
2023/10/16 08:36:53;;;;;;;5.13;3.03;;;;;;;7.76;65.33;96029.81;4933449;29;20210;-79
2023/10/16 08:39:21;;;;;;;6.97;2.73;;;;;;;7.61;65.86;96022.31;4936694;29;20278;-80
2023/10/16 08:41:53;;;;;;;5.23;2.87;;;;;;;7.88;65.09;96027.13;4939552;29;20189;-81
2023/10/16 08:44:21;;;;;;;4.67;2.33;;;;;;;7.84;64.81;96023.09;4926486;29;20188;-81
2023/10/16 08:49:25;;;;;;;4.00;2.50;;;;;;;7.82;65.28;96026.75;4931589;29;20200;-81
2023/10/16 08:52:09;;;;;;;4.57;2.77;;;;;;;7.58;64.32;96025.13;4941734;29;20245;-80
2023/10/16 08:57:16;;;;;;;5.53;2.37;;;;;;;8.03;64.98;96022.50;4941257;29;20215;-82
2023/10/16 08:59:43;;;;;;;5.60;2.90;;;;;;;7.89;64.98;96027.94;4920657;29;20249;-79
2023/10/16 09:02:11;;;;;;;4.20;2.90;;;;;;;7.97;64.07;96024.75;4925630;29;20300;-80
2023/10/16 09:04:37;;;;;;;5.60;2.90;;;;;;;8.11;63.63;96027.06;4938440;29;20296;-80
2023/10/16 09:07:02;;;;;;;6.30;3.13;;;;;;;8.07;63.74;96023.09;4941863;29;20237;-82
2023/10/16 09:09:30;;;;;;;6.10;2.83;;;;;;;8.28;63.20;96036.09;4941522;29;20185;-81
2023/10/16 09:12:04;;;;;;;3.17;2.30;;;;;;;8.42;61.91;96021.16;4941792;29;20223;-81
2023/10/16 09:14:30;;;;;;;6.43;2.90;;;;;;;8.32;62.17;96027.16;4936569;29;20277;-80
2023/10/16 09:16:58;;;;;;;3.60;2.30;;;;;;;8.03;63.09;96021.66;4944886;29;20638;-79
2023/10/16 09:19:33;;;;;;;4.83;2.33;;;;;;;8.30;62.65;96022.06;4943628;29;20189;-80
2023/10/16 09:21:58;;;;;;;5.27;2.20;;;;;;;8.30;62.21;96021.25;4945157;29;20193;-79
2023/10/16 09:24:24;;;;;;;2.70;2.07;;;;;;;8.17;62.06;96016.25;4936351;29;20575;-78
2023/10/16 09:26:54;;;;;;;6.60;2.03;;;;;;;8.55;61.63;96010.63;4941575;28;20206;-78
2023/10/16 09:29:23;;;;;;;4.03;2.00;;;;;;;8.78;61.10;96004.41;4929019;29;20201;-78
2023/10/16 09:31:49;;;;;;;5.47;2.03;;;;;;;8.83;60.33;95992.84;4942565;29;20197;-77
2023/10/16 09:34:18;;;;;;;3.67;2.07;;;;;;;8.65;59.83;95995.97;4935493;29;20612;-78
2023/10/16 09:39:40;;;;;;;6.13;2.70;;;;;;;8.60;60.22;96005.91;4945718;29;20248;-79
2023/10/16 09:42:14;;;;;;;4.93;2.43;;;;;;;8.75;60.64;95996.91;4948229;29;20215;-79
2023/10/16 09:47:48;;;;;;;6.97;3.17;;;;;;;8.79;61.23;95982.75;4913337;29;20237;-80
2023/10/16 09:50:16;;;;;;;13.97;3.27;;;;;;;9.06;60.46;95995.19;4887366;29;20198;-79
2023/10/16 09:52:45;;;;;;;2.90;2.00;;;;;;;9.09;59.17;95988.91;4905168;29;20203;-79
2023/10/16 09:55:11;;;;;;;4.03;1.90;;;;;;;9.02;57.69;95986.03;4923819;29;20257;-77
2023/10/16 09:57:38;;;;;;;4.47;2.20;;;;;;;9.11;58.65;95975.84;4909003;29;20235;-79
2023/10/16 10:02:51;;;;;;;3.47;2.30;;;;;;;8.80;57.65;95989.56;4918354;29;20640;-79
2023/10/16 10:05:21;;;;;;;2.17;1.93;;;;;;;9.02;56.81;95993.81;4905828;29;20295;-79
2023/10/16 10:07:47;;;;;;;3.40;2.03;;;;;;;9.00;57.63;95990.50;4908615;29;20252;-79
2023/10/16 10:13:03;;;;;;;4.00;1.97;;;;;;;9.17;56.05;95991.69;4925704;29;20202;-80
2023/10/16 10:15:35;;;;;;;2.20;1.83;;;;;;;9.46;56.87;95993.63;4937720;29;20210;-79
2023/10/16 10:18:31;;;;;;;3.83;1.30;;;;;;;9.39;53.43;95995.09;4916538;29;20236;-79
2023/10/16 10:20:48;;;;;;;2.43;1.80;;;;;;;9.63;53.55;95987.84;4925873;29;20679;-80
2023/10/16 10:23:15;;;;;;;2.20;1.47;;;;;;;9.72;53.76;95983.59;4897210;29;20201;-79
2023/10/16 10:25:41;;;;;;;2.33;1.40;;;;;;;9.63;50.97;95983.47;4943292;29;20883;-79
2023/10/16 10:28:45;;;;;;;1.37;1.27;;;;;;;9.72;51.05;95983.59;4945862;29;20221;-78
2023/10/16 10:31:11;;;;;;;2.63;1.20;;;;;;;9.08;50.76;95982.91;4892384;29;20191;-78
2023/10/16 10:33:51;;;;;;;1.80;1.40;;;;;;;9.51;50.60;95984.50;4878033;29;20289;-79
2023/10/16 10:36:36;;;;;;;3.50;1.53;;;;;;;9.64;50.48;95981.69;4893110;29;20226;-80
2023/10/16 10:45:17;;;;;;;3.07;1.60;;;;;;;9.87;49.65;95972.72;4904760;29;20483;-80
2023/10/16 10:47:43;;;;;;;2.80;1.80;;;;;;;9.94;51.52;95965.25;4905610;29;20277;-80
2023/10/16 10:50:14;;;;;;;2.97;1.60;;;;;;;10.00;51.43;95969.09;4885946;29;20278;-77
2023/10/16 10:52:41;;;;;;;3.23;2.10;;;;;;;10.08;51.32;95961.47;4881151;29;20207;-78
2023/10/16 10:55:19;;;;;;;5.83;2.10;;;;;;;10.06;51.42;95958.16;4905123;29;20559;-81
2023/10/16 10:57:48;;;;;;;3.50;2.43;;;;;;;9.75;51.12;95954.84;4900316;29;20635;-78
2023/10/16 11:00:43;;;;;;;4.23;2.00;;;;;;;9.69;50.34;95957.94;4885459;29;20235;-80
2023/10/16 11:03:10;;;;;;;3.33;2.10;;;;;;;9.38;50.92;95957.16;4909559;29;20193;-80
2023/10/16 11:05:40;;;;;;;6.17;2.73;;;;;;;9.36;51.92;95954.69;4930824;29;20707;-80
2023/10/16 11:10:47;;;;;;;2.77;2.20;;;;;;;9.74;52.31;95943.63;4940500;29;20257;-80
2023/10/16 11:13:14;;;;;;;3.40;2.23;;;;;;;9.93;51.62;95937.66;4926231;29;20235;-79
2023/10/16 11:15:53;;;;;;;3.10;2.03;;;;;;;9.87;50.21;95933.81;4952332;28;20572;-80
2023/10/16 11:18:20;;;;;;;2.67;2.40;;;;;;;10.23;49.94;95926.38;4928703;29;20276;-79
2023/10/16 11:20:47;;;;;;;2.83;2.00;;;;;;;10.21;50.08;95920.47;4928142;29;20236;-80
2023/10/16 11:23:13;;;;;;;5.13;3.07;;;;;;;10.30;50.20;95919.69;4923278;29;20193;-80
2023/10/16 11:25:45;;;;;;;4.83;2.13;;;;;;;10.16;50.15;95920.09;4931827;29;20301;-80
2023/10/16 11:28:20;;;;;;;2.60;2.10;;;;;;;10.22;50.36;95916.97;4940776;29;20213;-82
2023/10/16 11:30:49;;;;;;;4.70;1.90;;;;;;;10.23;50.11;95910.81;4928231;29;20273;-79
2023/10/16 11:33:26;;;;;;;5.20;2.10;;;;;;;10.38;50.07;95906.03;4942360;29;20191;-80
2023/10/16 11:35:54;;;;;;;5.07;2.27;;;;;;;10.10;49.84;95907.66;4939271;29;20181;-83
2023/10/16 11:38:28;;;;;;;2.87;2.30;;;;;;;10.40;49.81;95904.13;4936315;29;20206;-80
2023/10/16 11:40:57;;;;;;;2.90;2.33;;;;;;;10.20;49.74;95903.28;4926257;29;20236;-81
2023/10/16 11:43:22;;;;;;;2.47;2.10;;;;;;;10.17;50.26;95899.19;4934728;29;20328;-80
2023/10/16 11:45:56;;;;;;;6.67;2.47;;;;;;;10.07;50.20;95887.13;4933475;29;20305;-81
2023/10/16 11:48:47;;;;;;;3.90;2.63;;;;;;;9.81;50.11;95885.09;4940926;28;20224;-80
2023/10/16 11:51:16;;;;;;;2.37;2.03;;;;;;;10.23;50.65;95889.22;4965097;28;20216;-79
2023/10/16 11:53:43;;;;;;;3.20;2.10;;;;;;;10.17;50.61;95882.78;4957356;28;20201;-79
2023/10/16 11:56:12;;;;;;;3.90;2.00;;;;;;;10.42;50.52;95881.41;4964763;28;20184;-79
2023/10/16 11:58:38;;;;;;;2.50;1.70;;;;;;;10.45;50.13;95875.97;4961747;28;20208;-79
2023/10/16 12:01:09;;;;;;;8.03;2.70;;;;;;;10.34;49.62;95868.34;4968996;28;20182;-81
2023/10/16 12:03:39;;;;;;;3.67;2.23;;;;;;;10.23;50.17;95871.88;4938518;28;20170;-81
2023/10/16 12:06:08;;;;;;;2.83;2.47;;;;;;;10.44;49.17;95875.16;4944605;28;20222;-79
2023/10/16 12:08:37;;;;;;;2.67;2.20;;;;;;;10.56;49.29;95867.22;4953393;28;20208;-80
2023/10/16 12:11:03;;;;;;;4.10;2.30;;;;;;;10.25;49.79;95858.75;4950972;28;20270;-80
2023/10/16 12:13:29;;;;;;;2.67;2.40;;;;;;;10.57;49.75;95867.06;4951252;28;20193;-80
2023/10/16 12:15:55;;;;;;;4.20;2.17;;;;;;;10.46;48.90;95864.63;4946106;28;20185;-80
2023/10/16 12:18:21;;;;;;;4.40;2.37;;;;;;;10.57;49.59;95855.84;4956868;28;20198;-79
2023/10/16 12:20:46;;;;;;;4.53;2.27;;;;;;;10.55;48.39;95850.81;4952143;28;20268;-79
2023/10/16 12:23:12;;;;;;;3.40;2.43;;;;;;;10.33;48.88;95848.50;4943085;28;20710;-79
2023/10/16 12:25:37;;;;;;;6.53;3.67;;;;;;;10.23;48.84;95852.91;4921211;29;20193;-80
2023/10/16 12:28:07;;;;;;;2.80;2.50;;;;;;;10.37;49.14;95860.28;4924717;29;20225;-79
2023/10/16 12:30:32;;;;;;;5.33;2.37;;;;;;;10.29;48.83;95854.94;4943648;29;20273;-79
2023/10/16 12:32:59;;;;;;;8.40;2.83;;;;;;;10.12;48.62;95848.63;4932354;29;20217;-76
2023/10/16 12:35:25;;;;;;;6.93;2.90;;;;;;;10.32;49.37;95839.09;4937467;29;20193;-77
2023/10/16 12:37:55;;;;;;;4.63;2.70;;;;;;;10.52;48.95;95847.69;4935090;29;20264;-78
2023/10/16 12:40:24;;;;;;;3.13;2.70;;;;;;;10.62;48.46;95844.09;4943265;29;20221;-78
2023/10/16 12:42:53;;;;;;;4.07;2.30;;;;;;;10.15;48.90;95833.59;4939138;29;20222;-78
2023/10/16 12:45:20;;;;;;;2.63;2.10;;;;;;;10.59;48.55;95840.94;4921638;29;20256;-78
2023/10/16 12:47:45;;;;;;;4.13;2.57;;;;;;;10.71;48.73;95832.06;4944775;29;20595;-78
2023/10/16 12:50:11;;;;;;;4.47;2.73;;;;;;;10.52;48.52;95832.09;4918322;29;20189;-79
2023/10/16 12:52:38;;;;;;;3.83;2.90;;;;;;;10.62;48.51;95827.69;4956512;28;20197;-77
2023/10/16 12:55:09;;;;;;;3.47;2.85;;;;;;;10.81;48.47;95819.84;4943551;29;20439;-78
2023/10/16 12:57:34;;;;;;;4.53;3.17;;;;;;;10.77;48.92;95826.25;4942636;29;20198;-78
2023/10/16 12:59:59;;;;;;;2.53;2.33;;;;;;;11.03;48.51;95811.66;4927326;29;20211;-77
2023/10/16 13:02:25;;;;;;;2.13;1.90;;;;;;;10.98;48.16;95810.47;4933412;29;20189;-78
2023/10/16 13:04:51;;;;;;;2.30;2.10;;;;;;;11.01;46.86;95811.00;4922143;29;20208;-77
2023/10/16 13:07:17;;;;;;;4.17;3.13;;;;;;;10.76;48.26;95803.84;4939199;29;20635;-82
2023/10/16 13:09:43;;;;;;;3.77;2.50;;;;;;;11.14;47.34;95802.88;4940985;29;20204;-79
2023/10/16 13:12:09;;;;;;;3.73;2.60;;;;;;;11.23;46.95;95804.63;4942465;28;20213;-77
2023/10/16 13:14:35;;;;;;;3.47;2.37;;;;;;;10.96;46.66;95807.22;4935531;29;20277;-78
2023/10/16 13:17:00;;;;;;;2.53;2.33;;;;;;;10.60;46.88;95798.44;4937206;29;20775;-78
2023/10/16 13:19:27;;;;;;;5.07;2.53;;;;;;;10.75;47.29;95795.25;4948529;28;20181;-78
2023/10/16 13:21:53;;;;;;;3.60;2.63;;;;;;;10.94;47.15;95790.94;4945966;29;20656;-78
2023/10/16 13:24:20;;;;;;;4.43;2.77;;;;;;;11.24;47.58;95782.03;4922445;29;20173;-80
2023/10/16 13:26:47;;;;;;;6.17;3.33;;;;;;;11.20;47.75;95785.88;4923513;29;20264;-79
2023/10/16 13:29:13;;;;;;;3.20;2.90;;;;;;;11.17;47.34;95786.19;4945263;28;20189;-78
2023/10/16 13:31:41;;;;;;;2.43;2.23;;;;;;;11.13;45.99;95788.25;4947131;29;20181;-78
2023/10/16 13:34:10;;;;;;;3.27;2.40;;;;;;;11.22;45.58;95796.94;4940873;29;20344;-78
2023/10/16 13:36:56;;;;;;;2.77;2.47;;;;;;;11.11;47.10;95789.34;4939393;29;20205;-78
2023/10/16 13:39:24;;;;;;;3.27;2.70;;;;;;;11.13;47.71;95798.66;4928879;29;20182;-79
2023/10/16 13:41:50;;;;;;;4.10;2.47;;;;;;;11.04;47.03;95789.09;4928966;29;20200;-80
2023/10/16 13:44:20;;;;;;;3.47;2.50;;;;;;;11.24;46.13;95789.84;4944107;29;20182;-78
2023/10/16 13:46:52;;;;;;;4.43;2.40;;;;;;;11.26;46.19;95793.09;4946205;29;20201;-79
2023/10/16 13:49:18;;;;;;;3.40;2.37;;;;;;;10.91;45.94;95789.44;4922467;29;20668;-78
2023/10/16 13:51:45;;;;;;;2.13;1.93;;;;;;;11.15;45.82;95781.13;4933086;29;20201;-79
2023/10/16 13:54:14;;;;;;;2.07;1.70;;;;;;;11.21;45.95;95777.94;4944279;28;20268;-77